createdAt,value
2023-05-14T00:00:04.168Z,38.77
2023-05-14T00:02:35.385Z,37.63
2023-05-14T00:05:03.681Z,39.47
2023-05-14T00:07:31.905Z,39.03
2023-05-14T00:10:00.751Z,39.03
2023-05-14T00:12:30.472Z,37.57
2023-05-14T00:14:58.776Z,39.77
2023-05-14T00:17:27.114Z,38.60
2023-05-14T00:19:55.422Z,38.50
2023-05-14T00:22:23.701Z,42.10
2023-05-14T00:24:51.930Z,41.03
2023-05-14T00:27:20.270Z,37.53
2023-05-14T00:29:49.967Z,42.13
2023-05-14T00:32:18.311Z,38.43
2023-05-14T00:34:46.510Z,37.17
2023-05-14T00:37:14.927Z,35.97
2023-05-14T00:39:43.221Z,39.53
2023-05-14T00:42:11.498Z,38.73
2023-05-14T00:44:39.784Z,36.70
2023-05-14T00:47:09.677Z,37.00
2023-05-14T00:49:40.001Z,39.33
2023-05-14T00:52:08.793Z,37.27
2023-05-14T00:54:37.531Z,36.47
2023-05-14T00:57:07.393Z,35.97
2023-05-14T00:59:36.166Z,38.47
2023-05-14T01:02:04.539Z,33.90
2023-05-14T01:04:35.170Z,37.93
2023-05-14T01:07:13.547Z,35.80
2023-05-14T01:09:55.169Z,35.30
2023-05-14T01:12:30.960Z,34.40
2023-05-14T01:15:06.656Z,34.87
2023-05-14T01:17:41.958Z,39.03
2023-05-14T01:20:13.189Z,38.27
2023-05-14T01:22:42.901Z,38.90
2023-05-14T01:25:11.837Z,39.27
2023-05-14T01:27:47.266Z,37.07
2023-05-14T01:30:22.498Z,38.10
2023-05-14T01:32:55.901Z,38.37
2023-05-14T01:35:27.333Z,41.50
2023-05-14T01:38:00.767Z,41.33
2023-05-14T01:40:30.201Z,38.03
2023-05-14T01:42:58.917Z,37.33
2023-05-14T01:45:27.662Z,39.30
2023-05-14T01:47:56.024Z,37.40
2023-05-14T01:50:24.591Z,37.87
2023-05-14T01:52:53.596Z,37.60
2023-05-14T01:55:24.648Z,37.87
2023-05-14T01:57:53.506Z,37.77
2023-05-14T02:00:26.376Z,39.63
2023-05-14T02:02:54.849Z,35.23
2023-05-14T02:05:24.883Z,36.77
2023-05-14T02:07:56.075Z,40.13
2023-05-14T02:10:25.970Z,42.07
2023-05-14T02:12:54.454Z,34.73
2023-05-14T02:15:22.804Z,37.00
2023-05-14T02:17:51.138Z,37.10
2023-05-14T02:20:19.655Z,37.93
2023-05-14T02:22:48.404Z,38.63
2023-05-14T02:25:16.867Z,39.37
2023-05-14T02:27:46.551Z,35.93
2023-05-14T02:30:15.243Z,38.73
2023-05-14T02:32:43.808Z,38.13
2023-05-14T02:35:12.155Z,39.93
2023-05-14T02:37:40.542Z,34.83
2023-05-14T02:40:09.910Z,38.47
2023-05-14T02:42:38.137Z,38.47
2023-05-14T02:45:09.361Z,37.40
2023-05-14T02:47:38.329Z,35.00
2023-05-14T02:50:07.962Z,34.57
2023-05-14T02:52:36.391Z,36.90
2023-05-14T02:55:05.278Z,36.33
2023-05-14T02:57:33.641Z,34.27
2023-05-14T03:00:02.051Z,35.33
2023-05-14T03:02:34.824Z,34.87
2023-05-14T03:05:04.402Z,36.53
2023-05-14T03:07:32.733Z,33.00
2023-05-14T03:10:01.400Z,36.53
2023-05-14T03:12:30.507Z,35.50
2023-05-14T03:14:58.724Z,35.67
2023-05-14T03:17:27.138Z,35.17
2023-05-14T03:19:57.178Z,37.20
2023-05-14T03:22:25.503Z,33.40
2023-05-14T03:24:53.795Z,31.97
2023-05-14T03:27:22.083Z,33.27
2023-05-14T03:29:50.375Z,32.90
2023-05-14T03:32:19.274Z,32.00
2023-05-14T03:34:47.781Z,33.43
2023-05-14T03:37:17.773Z,32.57
2023-05-14T03:39:46.077Z,33.13
2023-05-14T03:42:14.340Z,31.07
2023-05-14T03:44:42.755Z,34.03
2023-05-14T03:47:11.028Z,29.60
2023-05-14T03:49:39.379Z,31.70
2023-05-14T03:52:10.455Z,30.77
2023-05-14T03:54:41.360Z,31.03
2023-05-14T03:57:09.783Z,29.83
2023-05-14T03:59:38.375Z,30.50
2023-05-14T04:02:06.650Z,32.47
2023-05-14T04:04:34.999Z,30.57
2023-05-14T04:07:04.013Z,30.10
2023-05-14T04:09:32.236Z,30.80
2023-05-14T04:12:01.968Z,34.03
2023-05-14T04:14:30.907Z,30.87
2023-05-14T04:17:00.275Z,33.70
2023-05-14T04:19:28.810Z,35.93
2023-05-14T04:21:57.227Z,30.97
2023-05-14T04:24:25.448Z,31.73
2023-05-14T04:26:53.717Z,32.47
2023-05-14T04:29:23.468Z,32.23
2023-05-14T04:31:51.799Z,31.73
2023-05-14T04:34:20.069Z,32.30
2023-05-14T04:36:48.375Z,34.33
2023-05-14T04:39:16.700Z,34.27
2023-05-14T04:41:44.983Z,31.70
2023-05-14T04:44:13.963Z,33.87
2023-05-14T04:46:43.625Z,33.67
2023-05-14T04:49:11.860Z,32.73
2023-05-14T04:51:40.111Z,31.73
2023-05-14T04:54:08.465Z,35.17
2023-05-14T04:56:36.734Z,31.00
2023-05-14T04:59:05.016Z,34.10
2023-05-14T05:01:33.510Z,34.57
2023-05-14T05:04:03.376Z,31.93
2023-05-14T05:06:31.657Z,31.93
2023-05-14T05:09:01.929Z,31.50
2023-05-14T05:11:30.650Z,30.57
2023-05-14T05:13:58.885Z,31.07
2023-05-14T05:16:27.216Z,29.77
2023-05-14T05:18:55.718Z,30.13
2023-05-14T05:21:25.410Z,30.97
2023-05-14T05:23:53.635Z,32.10
2023-05-14T05:26:22.304Z,32.33
2023-05-14T05:28:50.568Z,31.60
2023-05-14T05:31:19.926Z,34.23
2023-05-14T05:33:48.831Z,31.00
2023-05-14T05:36:17.141Z,31.90
2023-05-14T05:38:46.853Z,30.17
2023-05-14T05:41:15.196Z,30.20
2023-05-14T05:43:43.491Z,30.83
2023-05-14T05:46:11.757Z,28.33
2023-05-14T05:48:40.157Z,32.40
2023-05-14T05:51:08.455Z,30.93
2023-05-14T05:53:36.780Z,30.87
2023-05-14T05:56:07.478Z,28.93
2023-05-14T05:58:36.210Z,31.13
2023-05-14T06:01:04.557Z,30.77
2023-05-14T06:03:32.809Z,29.67
2023-05-14T06:06:01.083Z,30.63
2023-05-14T06:08:29.350Z,31.53
2023-05-14T06:10:57.596Z,30.77
2023-05-14T06:13:27.317Z,30.17
2023-05-14T06:15:55.626Z,30.50
2023-05-14T06:18:23.956Z,30.53
2023-05-14T06:20:52.245Z,28.03
2023-05-14T06:23:20.542Z,30.57
2023-05-14T06:25:50.846Z,31.50
2023-05-14T06:28:19.382Z,30.17
2023-05-14T06:30:51.034Z,29.60
2023-05-14T06:33:20.612Z,28.30
2023-05-14T06:35:49.030Z,28.87
2023-05-14T06:38:17.252Z,27.97
2023-05-14T06:40:45.598Z,27.07
2023-05-14T06:43:13.904Z,28.93
2023-05-14T06:45:42.138Z,28.80
2023-05-14T06:48:13.312Z,28.60
2023-05-14T06:50:41.757Z,28.97
2023-05-14T06:53:10.002Z,28.77
2023-05-14T06:55:38.291Z,29.47
2023-05-14T06:58:07.589Z,30.57
2023-05-14T07:00:35.989Z,30.20
2023-05-14T07:03:04.279Z,28.20
2023-05-14T07:05:33.989Z,29.70
2023-05-14T07:08:02.321Z,28.93
2023-05-14T07:10:31.008Z,29.70
2023-05-14T07:12:59.382Z,31.37
2023-05-14T07:15:27.791Z,28.40
2023-05-14T07:17:56.110Z,30.43
2023-05-14T07:20:25.152Z,29.50
2023-05-14T07:22:55.443Z,30.73
2023-05-14T07:25:23.799Z,27.00
2023-05-14T07:27:52.065Z,28.13
2023-05-14T07:30:20.984Z,29.10
2023-05-14T07:32:49.459Z,30.27
2023-05-14T07:35:17.781Z,30.53
2023-05-14T07:37:46.178Z,28.90
2023-05-14T07:40:16.391Z,30.17
2023-05-14T07:42:44.796Z,29.00
2023-05-14T07:45:13.460Z,29.43
2023-05-14T07:47:41.895Z,29.47
2023-05-14T07:50:11.282Z,27.70
2023-05-14T07:52:39.804Z,28.73
2023-05-14T07:55:08.813Z,28.27
2023-05-14T07:57:38.559Z,31.70
2023-05-14T08:00:09.360Z,31.03
2023-05-14T08:02:44.071Z,29.73
2023-05-14T08:05:12.740Z,27.20
2023-05-14T08:07:41.431Z,27.33
2023-05-14T08:10:10.976Z,29.27
2023-05-14T08:12:40.821Z,28.33
2023-05-14T08:15:10.242Z,30.10
2023-05-14T08:17:38.921Z,26.50
2023-05-14T08:20:09.916Z,27.13
2023-05-14T08:22:38.375Z,26.77
2023-05-14T08:25:07.809Z,27.33
2023-05-14T08:27:36.268Z,28.07
2023-05-14T08:30:07.478Z,26.23
2023-05-14T08:32:35.816Z,27.03
2023-05-14T08:35:04.575Z,27.07
2023-05-14T08:37:32.845Z,26.00
2023-05-14T08:40:01.283Z,23.10
2023-05-14T08:42:30.242Z,25.60
2023-05-14T08:45:02.247Z,23.23
2023-05-14T08:47:32.620Z,24.87
2023-05-14T08:50:04.551Z,23.63
2023-05-14T08:52:33.153Z,22.43
2023-05-14T08:55:04.429Z,23.77
2023-05-14T08:57:34.450Z,25.73
2023-05-14T09:00:06.525Z,25.30
2023-05-14T09:02:37.911Z,23.92
2023-05-14T09:05:07.399Z,24.58
2023-05-14T09:07:35.744Z,22.93
2023-05-14T09:10:04.615Z,23.38
2023-05-14T09:12:32.948Z,23.55
2023-05-14T09:15:01.481Z,23.13
2023-05-14T09:17:29.934Z,22.30
2023-05-14T09:19:59.908Z,24.45
2023-05-14T09:22:31.851Z,21.80
2023-05-14T09:25:05.168Z,20.77
2023-05-14T09:27:34.477Z,23.23
2023-05-14T09:30:08.012Z,22.00
2023-05-14T09:32:40.693Z,22.20
2023-05-14T09:35:18.818Z,21.83
2023-05-14T09:37:48.540Z,19.55
2023-05-14T09:40:18.352Z,21.95
2023-05-14T09:42:48.263Z,22.27
2023-05-14T09:45:17.653Z,20.02
2023-05-14T09:47:46.191Z,19.83
2023-05-14T09:50:16.099Z,21.40
2023-05-14T09:52:44.463Z,22.13
2023-05-14T09:55:12.938Z,23.10
2023-05-14T09:57:41.267Z,23.87
2023-05-14T10:00:12.752Z,22.02
2023-05-14T10:02:43.541Z,23.38
2023-05-14T10:05:13.509Z,24.58
2023-05-14T10:07:47.885Z,23.15
2023-05-14T10:10:19.939Z,22.10
2023-05-14T10:12:54.028Z,22.40
2023-05-14T10:15:28.315Z,24.02
2023-05-14T10:17:59.997Z,20.90
2023-05-14T10:20:28.976Z,19.88
2023-05-14T10:22:59.843Z,19.85
2023-05-14T10:25:28.709Z,18.20
2023-05-14T10:27:57.345Z,18.38
2023-05-14T10:30:26.010Z,21.20
2023-05-14T10:33:08.688Z,17.85
2023-05-14T10:35:56.791Z,19.70
2023-05-14T10:38:28.365Z,18.95
2023-05-14T10:41:00.011Z,19.25
2023-05-14T10:43:32.624Z,19.55
2023-05-14T10:46:02.858Z,20.13
2023-05-14T10:48:31.370Z,18.30
2023-05-14T10:51:00.635Z,17.95
2023-05-14T10:53:35.722Z,18.58
2023-05-14T10:56:12.119Z,17.30
2023-05-14T10:58:42.985Z,17.05
2023-05-14T11:01:13.650Z,18.38
2023-05-14T11:03:43.399Z,17.40
2023-05-14T11:06:13.171Z,18.63
2023-05-14T11:08:43.893Z,17.58
2023-05-14T11:11:12.293Z,16.92
2023-05-14T11:13:42.678Z,18.70
2023-05-14T11:16:22.680Z,18.20
2023-05-14T11:19:01.881Z,17.13
2023-05-14T11:21:31.661Z,16.83
2023-05-14T11:24:03.807Z,16.13
2023-05-14T11:26:33.251Z,16.75
2023-05-14T11:29:01.682Z,17.25
2023-05-14T11:31:30.109Z,15.85
2023-05-14T11:33:58.446Z,17.02
2023-05-14T11:36:26.812Z,14.48
2023-05-14T11:38:55.104Z,15.65
2023-05-14T11:41:26.340Z,16.25
2023-05-14T11:43:54.832Z,16.83
2023-05-14T11:46:23.824Z,16.20
2023-05-14T11:48:52.505Z,15.95
2023-05-14T11:51:20.921Z,14.63
2023-05-14T11:53:49.273Z,15.80
2023-05-14T11:56:17.572Z,14.52
2023-05-14T11:58:51.012Z,15.05
2023-05-14T12:01:19.546Z,16.40
2023-05-14T12:03:47.995Z,14.07
2023-05-14T12:06:16.388Z,14.20
2023-05-14T12:08:44.772Z,15.15
2023-05-14T12:11:13.094Z,14.80
2023-05-14T12:13:41.472Z,13.15
2023-05-14T12:16:11.257Z,14.80
2023-05-14T12:18:39.803Z,14.48
2023-05-14T12:21:09.081Z,15.02
2023-05-14T12:23:40.294Z,15.15
2023-05-14T12:26:10.838Z,14.98
2023-05-14T12:28:43.519Z,15.23
2023-05-14T12:31:13.474Z,13.80
2023-05-14T12:33:43.788Z,13.68
2023-05-14T12:36:21.233Z,13.27
2023-05-14T12:38:50.361Z,13.45
2023-05-14T12:41:19.001Z,14.55
2023-05-14T12:43:49.320Z,14.50
2023-05-14T12:46:19.224Z,15.45
2023-05-14T12:48:48.111Z,14.10
2023-05-14T12:51:16.730Z,14.30
2023-05-14T12:53:45.090Z,13.45
2023-05-14T12:56:13.980Z,15.23
2023-05-14T12:58:42.941Z,12.82
2023-05-14T13:01:11.235Z,15.30
2023-05-14T13:03:41.172Z,12.93
2023-05-14T13:06:09.491Z,13.15
2023-05-14T13:08:37.815Z,11.68
2023-05-14T13:11:06.141Z,12.13
2023-05-14T13:13:34.463Z,12.55
2023-05-14T13:16:03.783Z,13.00
2023-05-14T13:18:32.117Z,12.13
2023-05-14T13:21:04.334Z,11.63
2023-05-14T13:23:32.624Z,11.30
2023-05-14T13:26:00.945Z,9.80
2023-05-14T13:28:29.234Z,9.30
2023-05-14T13:31:07.089Z,9.25
2023-05-14T13:33:39.658Z,9.35
2023-05-14T13:36:10.905Z,10.75
2023-05-14T13:38:39.609Z,10.38
2023-05-14T13:41:07.963Z,12.40
2023-05-14T13:43:36.910Z,11.15
2023-05-14T13:46:07.512Z,11.85
2023-05-14T13:48:37.299Z,10.50
2023-05-14T13:51:05.702Z,10.73
2023-05-14T13:53:35.339Z,13.73
2023-05-14T13:56:03.629Z,12.07
2023-05-14T13:58:31.925Z,10.60
2023-05-14T14:01:00.120Z,12.07
2023-05-14T14:03:28.371Z,11.32
2023-05-14T14:05:56.778Z,10.88
2023-05-14T14:08:24.990Z,11.93
2023-05-14T14:10:55.756Z,12.32
2023-05-14T14:13:24.463Z,11.52
2023-05-14T14:15:53.191Z,13.48
2023-05-14T14:18:21.703Z,12.82
2023-05-14T14:20:51.332Z,13.57
2023-05-14T14:23:20.438Z,14.90
2023-05-14T14:25:48.743Z,12.73
2023-05-14T14:28:19.062Z,11.90
2023-05-14T14:30:47.438Z,12.80
2023-05-14T14:33:15.843Z,11.55
2023-05-14T14:35:44.185Z,12.23
2023-05-14T14:38:12.552Z,11.50
2023-05-14T14:40:40.829Z,11.73
2023-05-14T14:43:09.106Z,13.05
2023-05-14T14:45:38.902Z,13.07
2023-05-14T14:48:28.300Z,13.48
2023-05-14T14:50:56.943Z,12.15
2023-05-14T14:53:25.984Z,11.55
2023-05-14T14:55:55.023Z,10.73
2023-05-14T14:58:23.836Z,11.98
2023-05-14T15:00:55.177Z,12.00
2023-05-14T15:03:24.875Z,11.63
2023-05-14T15:05:54.139Z,10.25
2023-05-14T15:08:28.192Z,12.20
2023-05-14T15:10:57.428Z,11.80
2023-05-14T15:13:27.264Z,12.38
2023-05-14T15:15:56.996Z,12.02
2023-05-14T15:18:25.434Z,10.32
2023-05-14T15:20:54.061Z,12.85
2023-05-14T15:23:22.433Z,13.20
2023-05-14T15:25:50.799Z,13.40
2023-05-14T15:28:19.281Z,12.88
2023-05-14T15:30:49.168Z,12.50
2023-05-14T15:33:19.579Z,10.60
2023-05-14T15:35:48.065Z,12.10
2023-05-14T15:38:16.507Z,9.48
2023-05-14T15:40:46.259Z,10.82
2023-05-14T15:43:14.602Z,9.68
2023-05-14T15:45:45.295Z,9.15
2023-05-14T15:48:13.657Z,9.80
2023-05-14T15:50:43.978Z,9.93
2023-05-14T15:53:12.397Z,10.35
2023-05-14T15:55:40.937Z,10.10
2023-05-14T15:58:09.181Z,10.23
2023-05-14T16:00:37.558Z,11.02
2023-05-14T16:03:06.286Z,9.90
2023-05-14T16:05:34.718Z,9.55
2023-05-14T16:08:04.850Z,9.20
2023-05-14T16:10:33.231Z,8.10
2023-05-14T16:13:01.561Z,9.70
2023-05-14T16:15:29.985Z,9.80
2023-05-14T16:17:58.319Z,9.38
2023-05-14T16:20:26.740Z,9.85
2023-05-14T16:22:55.058Z,8.95
2023-05-14T16:25:24.799Z,8.30
2023-05-14T16:27:53.130Z,8.88
2023-05-14T16:30:21.568Z,8.98
2023-05-14T16:32:50.273Z,9.55
2023-05-14T16:35:18.623Z,10.25
2023-05-14T16:37:46.874Z,10.82
2023-05-14T16:40:16.219Z,9.95
2023-05-14T16:42:48.507Z,10.20
2023-05-14T16:45:17.834Z,11.48
2023-05-14T16:47:46.103Z,10.63
2023-05-14T16:50:14.381Z,11.32
2023-05-14T16:52:42.774Z,12.10
2023-05-14T16:55:11.497Z,13.13
2023-05-14T16:57:39.900Z,10.70
2023-05-14T17:00:11.215Z,10.95
2023-05-14T17:02:39.673Z,12.10
2023-05-14T17:05:09.470Z,12.77
2023-05-14T17:07:38.522Z,13.02
2023-05-14T17:10:08.521Z,12.38
2023-05-14T17:12:36.831Z,13.40
2023-05-14T17:15:07.717Z,13.48
2023-05-14T17:17:37.654Z,13.32
2023-05-14T17:20:10.074Z,12.13
2023-05-14T17:22:39.475Z,12.25
2023-05-14T17:25:09.225Z,11.98
2023-05-14T17:27:37.534Z,12.77
2023-05-14T17:30:07.010Z,12.63
2023-05-14T17:32:37.464Z,11.32
2023-05-14T17:35:06.617Z,11.18
2023-05-14T17:37:36.427Z,12.30
2023-05-14T17:40:05.636Z,11.80
2023-05-14T17:42:33.978Z,11.77
2023-05-14T17:45:02.313Z,12.13
2023-05-14T17:47:30.752Z,11.73
2023-05-14T17:50:00.575Z,12.35
2023-05-14T17:52:28.926Z,12.43
2023-05-14T17:54:57.235Z,11.93
2023-05-14T17:57:26.191Z,11.35
2023-05-14T17:59:54.477Z,11.40
2023-05-14T18:02:22.786Z,9.82
2023-05-14T18:04:51.038Z,10.95
2023-05-14T18:07:22.526Z,10.48
2023-05-14T18:09:50.849Z,11.15
2023-05-14T18:12:19.106Z,11.45
2023-05-14T18:14:47.393Z,12.47
2023-05-14T18:17:15.849Z,10.95
2023-05-14T18:19:44.216Z,12.70
2023-05-14T18:22:12.876Z,12.43
2023-05-14T18:24:44.283Z,11.97
2023-05-14T18:27:12.686Z,12.67
2023-05-14T18:29:41.512Z,11.98
2023-05-14T18:32:09.758Z,13.07
2023-05-14T18:34:38.060Z,12.70
2023-05-14T18:37:07.209Z,13.10
2023-05-14T18:39:35.423Z,12.47
2023-05-14T18:42:05.379Z,13.77
2023-05-14T18:44:33.876Z,13.77
2023-05-14T18:47:02.125Z,15.17
2023-05-14T18:49:30.518Z,13.93
2023-05-14T18:51:58.858Z,14.77
2023-05-14T18:54:27.165Z,14.07
2023-05-14T18:56:56.075Z,15.07
2023-05-14T18:59:26.061Z,15.37
2023-05-14T19:01:54.594Z,14.90
2023-05-14T19:04:23.192Z,15.47
2023-05-14T19:06:52.615Z,16.17
2023-05-14T19:09:21.400Z,15.20
2023-05-14T19:11:49.721Z,16.97
2023-05-14T19:14:18.089Z,18.10
2023-05-14T19:16:48.043Z,17.63
2023-05-14T19:19:16.823Z,15.00
2023-05-14T19:21:45.360Z,16.07
2023-05-14T19:24:13.878Z,15.87
2023-05-14T19:26:42.165Z,16.73
2023-05-14T19:29:10.451Z,16.73
2023-05-14T19:31:38.871Z,15.53
2023-05-14T19:34:08.579Z,16.00
2023-05-14T19:36:37.049Z,15.70
2023-05-14T19:39:06.013Z,16.70
2023-05-14T19:41:34.297Z,17.00
2023-05-14T19:44:02.547Z,16.77
2023-05-14T19:46:30.965Z,17.67
2023-05-14T19:48:59.210Z,17.27
2023-05-14T19:51:28.922Z,19.10
2023-05-14T19:53:57.223Z,18.47
2023-05-14T19:56:27.145Z,17.80
2023-05-14T19:58:55.920Z,17.63
2023-05-14T20:01:24.276Z,16.80
2023-05-14T20:03:52.601Z,17.93
2023-05-14T20:06:21.273Z,18.20
2023-05-14T20:08:51.595Z,18.40
2023-05-14T20:11:19.969Z,19.03
2023-05-14T20:13:48.631Z,18.53
2023-05-14T20:16:17.013Z,18.20
2023-05-14T20:18:45.407Z,16.93
2023-05-14T20:21:13.863Z,17.27
2023-05-14T20:23:42.268Z,18.10
2023-05-14T20:26:11.910Z,17.50
2023-05-14T20:28:40.425Z,18.73
2023-05-14T20:31:08.892Z,18.90
2023-05-14T20:33:37.197Z,17.30
2023-05-14T20:36:05.696Z,18.90
2023-05-14T20:38:34.898Z,19.13
2023-05-14T20:41:03.623Z,18.47
2023-05-14T20:43:33.334Z,17.23
2023-05-14T20:46:01.718Z,18.33
2023-05-14T20:48:30.212Z,20.00
2023-05-14T20:50:58.526Z,19.27
2023-05-14T20:53:28.417Z,18.87
2023-05-14T20:55:56.899Z,18.20
2023-05-14T20:58:25.410Z,18.30
2023-05-14T21:00:55.332Z,18.43
2023-05-14T21:03:23.904Z,17.63
2023-05-14T21:05:54.546Z,16.43
2023-05-14T21:08:23.472Z,16.53
2023-05-14T21:10:51.919Z,16.83
2023-05-14T21:13:20.361Z,17.23
2023-05-14T21:15:48.809Z,16.83
2023-05-14T21:18:18.483Z,17.47
2023-05-14T21:20:47.670Z,17.43
2023-05-14T21:23:16.387Z,15.43
2023-05-14T21:25:45.118Z,16.80
2023-05-14T21:28:13.419Z,18.27
2023-05-14T21:30:41.756Z,16.37
2023-05-14T21:33:10.087Z,17.13
2023-05-14T21:35:39.788Z,17.03
2023-05-14T21:38:08.917Z,16.77
2023-05-14T21:40:37.155Z,16.10
2023-05-14T21:43:05.423Z,18.73
2023-05-14T21:45:33.747Z,16.83
2023-05-14T21:48:02.101Z,16.53
2023-05-14T21:50:30.826Z,16.37
2023-05-14T21:53:00.601Z,18.30
2023-05-14T21:55:29.350Z,18.77
2023-05-14T21:57:57.642Z,18.53
2023-05-14T22:00:26.050Z,19.23
2023-05-14T22:02:54.845Z,18.23
2023-05-14T22:05:23.494Z,19.00
2023-05-14T22:07:52.412Z,20.77
2023-05-14T22:10:22.189Z,19.87
2023-05-14T22:12:50.537Z,20.13
2023-05-14T22:15:18.938Z,20.57
2023-05-14T22:17:47.616Z,19.80
2023-05-14T22:20:16.147Z,21.33
2023-05-14T22:22:44.447Z,21.67
2023-05-14T22:25:12.865Z,19.43
2023-05-14T22:27:42.616Z,22.53
2023-05-14T22:30:11.689Z,22.13
2023-05-14T22:32:40.133Z,24.63
2023-05-14T22:35:09.017Z,23.53
2023-05-14T22:37:37.379Z,24.70
2023-05-14T22:40:07.437Z,24.60
2023-05-14T22:42:35.715Z,24.10
2023-05-14T22:45:06.023Z,25.87
2023-05-14T22:47:34.309Z,23.43
2023-05-14T22:50:02.540Z,25.83
2023-05-14T22:52:30.953Z,27.70
2023-05-14T22:54:59.258Z,26.77
2023-05-14T22:57:27.751Z,24.80
2023-05-14T22:59:56.477Z,28.40
2023-05-14T23:02:26.268Z,26.10
2023-05-14T23:04:54.689Z,26.07
2023-05-14T23:07:23.397Z,28.10
2023-05-14T23:09:51.743Z,29.13
2023-05-14T23:12:20.116Z,28.20
2023-05-14T23:14:48.377Z,29.03
2023-05-14T23:17:17.957Z,26.57
2023-05-14T23:19:47.798Z,27.43
2023-05-14T23:22:16.044Z,26.17
2023-05-14T23:24:44.788Z,28.60
2023-05-14T23:27:13.210Z,27.00
2023-05-14T23:29:41.535Z,28.03
2023-05-14T23:32:10.246Z,27.37
2023-05-14T23:34:38.722Z,28.83
2023-05-14T23:37:08.827Z,30.17
2023-05-14T23:39:37.330Z,29.43
2023-05-14T23:42:05.891Z,29.83
2023-05-14T23:44:34.207Z,29.47
2023-05-14T23:47:02.698Z,29.97
2023-05-14T23:49:31.158Z,27.70
2023-05-14T23:51:59.393Z,31.40
2023-05-14T23:54:29.133Z,29.70
2023-05-14T23:56:57.664Z,29.00
2023-05-14T23:59:26.599Z,31.90
